createdAt,value
2019-01-14T00:04:47.099Z,10.10
2019-01-14T00:09:51.147Z,9.80
2019-01-14T00:14:55.553Z,10.20
2019-01-14T00:20:00.351Z,9.90
2019-01-14T00:25:06.263Z,10.10
2019-01-14T00:30:13.119Z,9.90
2019-01-14T00:35:17.114Z,10.20
2019-01-14T00:40:21.153Z,9.80
2019-01-14T00:45:25.259Z,10.10
2019-01-14T00:50:30.094Z,9.90
2019-01-14T00:55:34.139Z,9.90
2019-01-14T01:00:38.570Z,10.00
2019-01-14T01:05:42.810Z,10.10
2019-01-14T01:10:46.935Z,9.90
2019-01-14T01:15:51.171Z,9.90
2019-01-14T01:20:55.630Z,9.80
2019-01-14T01:25:59.699Z,10.10
2019-01-14T01:31:04.138Z,9.90
2019-01-14T01:36:08.339Z,10.10
2019-01-14T01:41:12.383Z,10.10
2019-01-14T01:46:16.699Z,10.00
2019-01-14T01:51:20.751Z,9.90
2019-01-14T01:56:24.777Z,9.90
2019-01-14T02:01:28.916Z,10.10
2019-01-14T02:06:39.165Z,9.90
2019-01-14T02:11:40.386Z,9.80
2019-01-14T02:16:45.005Z,9.80
2019-01-14T02:21:49.939Z,10.00
2019-01-14T02:26:53.995Z,10.10
2019-01-14T02:31:58.057Z,9.80
2019-01-14T02:37:02.076Z,9.80
2019-01-14T02:42:06.446Z,10.00
2019-01-14T02:47:10.545Z,10.10
2019-01-14T02:52:14.693Z,9.80
2019-01-14T02:57:19.068Z,9.90
2019-01-14T03:02:23.124Z,9.90
2019-01-14T03:07:27.200Z,9.80
2019-01-14T03:12:31.359Z,9.80
2019-01-14T03:17:35.420Z,9.80
2019-01-14T03:22:39.491Z,9.80
2019-01-14T03:27:44.155Z,10.10
2019-01-14T03:32:48.193Z,10.10
2019-01-14T03:37:52.328Z,9.80
2019-01-14T03:42:56.308Z,10.10
2019-01-14T03:48:00.578Z,9.90
2019-01-14T03:53:05.406Z,10.10
2019-01-14T03:58:10.083Z,10.10
2019-01-14T04:03:14.020Z,10.10
2019-01-14T04:08:18.563Z,9.80
2019-01-14T04:13:22.628Z,9.80
2019-01-14T04:18:27.590Z,9.80
2019-01-14T04:23:31.743Z,9.70
2019-01-14T04:28:36.009Z,9.60
2019-01-14T04:33:40.228Z,9.50
2019-01-14T04:38:45.374Z,9.60
2019-01-14T04:43:49.446Z,9.50
2019-01-14T04:48:53.511Z,9.60
2019-01-14T04:53:57.573Z,9.50
2019-01-14T04:59:01.751Z,9.50
2019-01-14T05:04:05.814Z,9.60
2019-01-14T05:09:10.349Z,9.60
2019-01-14T05:14:14.589Z,9.60
2019-01-14T05:19:18.621Z,9.70
2019-01-14T05:24:23.250Z,9.60
2019-01-14T05:29:27.250Z,9.30
2019-01-14T05:34:31.276Z,9.80
2019-01-14T05:39:35.341Z,9.40
2019-01-14T05:44:39.423Z,9.50
2019-01-14T05:49:43.395Z,9.40
2019-01-14T05:54:48.111Z,9.20
2019-01-14T05:59:52.204Z,9.50
2019-01-14T06:04:56.351Z,9.50
2019-01-14T06:10:00.511Z,9.20
2019-01-14T06:15:06.351Z,9.40
2019-01-14T06:20:13.576Z,9.60
2019-01-14T06:25:18.578Z,9.70
2019-01-14T06:30:25.011Z,9.50
2019-01-14T06:35:29.600Z,9.40
2019-01-14T06:40:33.643Z,9.80
2019-01-14T06:45:37.675Z,9.20
2019-01-14T06:50:41.792Z,9.50
2019-01-14T06:55:45.997Z,9.30
2019-01-14T07:00:50.144Z,9.40
2019-01-14T07:05:54.187Z,9.50
2019-01-14T07:10:58.609Z,9.30
2019-01-14T07:16:03.943Z,9.30
2019-01-14T07:21:07.999Z,9.20
2019-01-14T07:26:12.929Z,9.40
2019-01-14T07:31:17.255Z,9.30
2019-01-14T07:36:21.669Z,9.30
2019-01-14T07:41:25.781Z,9.20
2019-01-14T07:46:29.922Z,9.20
2019-01-14T07:51:33.959Z,9.30
2019-01-14T07:56:38.199Z,9.20
2019-01-14T08:01:42.332Z,9.30
2019-01-14T08:06:46.299Z,9.40
2019-01-14T08:11:50.273Z,9.40
2019-01-14T08:16:54.358Z,9.20
2019-01-14T08:21:59.056Z,9.20
2019-01-14T08:27:04.015Z,9.20
2019-01-14T08:32:08.070Z,9.20
2019-01-14T08:37:12.099Z,9.30
2019-01-14T08:42:17.877Z,9.20
2019-01-14T08:47:23.150Z,9.40
2019-01-14T08:52:27.202Z,9.10
2019-01-14T08:57:32.540Z,9.20
2019-01-14T09:02:36.603Z,9.00
2019-01-14T09:07:40.632Z,9.20
2019-01-14T09:12:44.647Z,9.50
2019-01-14T09:17:49.295Z,8.90
2019-01-14T09:22:53.428Z,8.80
2019-01-14T09:27:57.473Z,9.00
2019-01-14T09:33:01.691Z,9.00
2019-01-14T09:38:06.511Z,9.00
2019-01-14T09:43:10.644Z,9.20
2019-01-14T09:48:14.611Z,8.90
2019-01-14T09:53:18.568Z,9.10
2019-01-14T09:58:22.686Z,9.20
2019-01-14T10:03:26.669Z,8.90
2019-01-14T10:08:31.951Z,8.90
2019-01-14T10:13:36.012Z,8.90
2019-01-14T10:18:42.992Z,8.80
2019-01-14T10:23:47.568Z,8.90
2019-01-14T10:28:51.774Z,8.90
2019-01-14T10:33:56.616Z,8.90
2019-01-14T10:39:00.590Z,8.90
2019-01-14T10:44:05.779Z,9.00
2019-01-14T10:49:11.176Z,9.00
2019-01-14T10:54:15.282Z,8.80
2019-01-14T10:59:22.539Z,9.00
2019-01-14T11:04:26.704Z,8.90
2019-01-14T11:09:30.845Z,8.90
2019-01-14T11:14:35.692Z,9.00
2019-01-14T11:19:40.602Z,9.10
2019-01-14T11:24:51.555Z,8.90
2019-01-14T11:29:55.639Z,9.30
2019-01-14T11:34:59.683Z,9.10
2019-01-14T11:40:07.575Z,9.10
2019-01-14T11:45:12.617Z,9.00
2019-01-14T11:50:17.438Z,9.00
2019-01-14T11:55:21.585Z,8.90
2019-01-14T12:00:26.608Z,8.80
2019-01-14T12:05:30.735Z,8.80
2019-01-14T12:10:34.786Z,9.00
2019-01-14T12:15:38.991Z,8.90
2019-01-14T12:20:43.099Z,9.00
2019-01-14T12:25:47.426Z,8.90
2019-01-14T12:30:51.630Z,8.90
2019-01-14T12:35:55.734Z,8.90
2019-01-14T12:40:59.811Z,8.90
2019-01-14T12:46:03.843Z,8.90
2019-01-14T12:51:07.877Z,8.90
2019-01-14T12:56:12.445Z,8.90
2019-01-14T13:01:16.559Z,9.10
2019-01-14T13:06:20.715Z,8.90
2019-01-14T13:11:25.861Z,9.10
2019-01-14T13:16:31.132Z,8.90
2019-01-14T13:21:35.162Z,8.90
2019-01-14T13:26:39.199Z,9.00
2019-01-14T13:31:43.227Z,8.90
2019-01-14T13:36:47.250Z,8.90
2019-01-14T13:41:51.358Z,9.10
2019-01-14T13:46:55.871Z,8.90
2019-01-14T13:52:00.106Z,9.00
2019-01-14T13:57:04.119Z,8.80
2019-01-14T14:02:08.183Z,8.60
2019-01-14T14:07:12.218Z,8.60
2019-01-14T14:12:16.187Z,8.50
2019-01-14T14:17:21.923Z,8.70
2019-01-14T14:22:25.908Z,8.60
2019-01-14T14:27:31.391Z,8.70
2019-01-14T14:32:36.125Z,8.80
2019-01-14T14:37:40.355Z,8.60
2019-01-14T14:42:44.391Z,8.60
2019-01-14T14:47:48.460Z,8.70
2019-01-14T14:52:54.133Z,8.70
2019-01-14T14:57:59.703Z,8.70
2019-01-14T15:03:03.739Z,8.60
2019-01-14T15:08:09.751Z,8.50
2019-01-14T15:13:13.883Z,9.20
2019-01-14T15:18:17.935Z,9.10
2019-01-14T15:23:21.824Z,9.00
2019-01-14T15:28:25.804Z,8.80
2019-01-14T15:33:30.115Z,8.90
2019-01-14T15:38:34.421Z,8.60
2019-01-14T15:43:38.383Z,8.90
2019-01-14T15:48:42.887Z,8.50
2019-01-14T15:53:48.955Z,8.60
2019-01-14T15:58:53.056Z,8.70
2019-01-14T16:03:57.096Z,8.60
2019-01-14T16:09:01.147Z,8.60
2019-01-14T16:14:05.291Z,8.60
2019-01-14T16:19:09.246Z,8.60
2019-01-14T16:24:13.340Z,8.50
2019-01-14T16:29:18.539Z,8.70
2019-01-14T16:34:22.587Z,8.50
2019-01-14T16:39:26.712Z,8.60
2019-01-14T16:44:30.794Z,8.30
2019-01-14T16:49:36.180Z,8.30
2019-01-14T16:54:40.151Z,8.40
2019-01-14T16:59:44.747Z,8.30
2019-01-14T17:04:48.785Z,8.40
2019-01-14T17:09:53.520Z,8.30
2019-01-14T17:14:57.564Z,8.20
2019-01-14T17:20:01.774Z,8.40
2019-01-14T17:25:06.425Z,8.30
2019-01-14T17:30:12.331Z,8.70
2019-01-14T17:35:16.820Z,8.60
2019-01-14T17:40:20.914Z,8.50
2019-01-14T17:45:25.800Z,8.60
2019-01-14T17:50:30.663Z,8.50
2019-01-14T17:55:34.818Z,8.60
2019-01-14T18:00:38.863Z,8.70
2019-01-14T18:05:42.819Z,8.70
2019-01-14T18:10:46.734Z,8.60
2019-01-14T18:15:51.063Z,8.60
2019-01-14T18:20:54.979Z,8.40
2019-01-14T18:25:59.147Z,8.40
2019-01-14T18:31:03.163Z,8.40
2019-01-14T18:36:07.239Z,8.30
2019-01-14T18:41:11.475Z,8.30
2019-01-14T18:46:15.535Z,8.30
2019-01-14T18:51:19.590Z,8.40
2019-01-14T18:56:23.547Z,8.10
2019-01-14T19:01:27.759Z,8.20
2019-01-14T19:06:31.865Z,8.40
2019-01-14T19:11:36.926Z,8.40
2019-01-14T19:16:41.520Z,8.30
2019-01-14T19:21:45.503Z,8.30
2019-01-14T19:26:49.428Z,8.40
2019-01-14T19:31:53.510Z,8.70
2019-01-14T19:36:57.757Z,8.30
2019-01-14T19:42:01.834Z,8.30
2019-01-14T19:47:05.883Z,8.40
2019-01-14T19:52:10.855Z,8.40
2019-01-14T19:57:14.903Z,8.20
2019-01-14T20:02:19.481Z,8.40
2019-01-14T20:07:23.515Z,8.30
2019-01-14T20:12:27.711Z,8.40
2019-01-14T20:17:31.802Z,8.30
2019-01-14T20:22:36.576Z,8.30
2019-01-14T20:27:40.624Z,8.30
2019-01-14T20:32:45.083Z,8.30
2019-01-14T20:37:49.194Z,8.30
2019-01-14T20:42:53.281Z,8.40
2019-01-14T20:47:57.398Z,8.40
2019-01-14T20:53:03.109Z,8.10
2019-01-14T20:58:07.200Z,8.40
2019-01-14T21:03:11.289Z,8.40
2019-01-14T21:08:15.422Z,8.30
2019-01-14T21:13:20.000Z,8.30
2019-01-14T21:18:24.042Z,8.30
2019-01-14T21:23:28.012Z,8.10
2019-01-14T21:28:31.972Z,8.30
2019-01-14T21:33:35.963Z,8.10
2019-01-14T21:38:40.002Z,8.10
2019-01-14T21:43:43.967Z,8.30
2019-01-14T21:48:48.079Z,8.30
2019-01-14T21:53:52.165Z,7.90
2019-01-14T21:58:56.442Z,8.40
2019-01-14T22:04:01.076Z,8.10
2019-01-14T22:09:07.346Z,8.10
2019-01-14T22:14:12.688Z,8.40
2019-01-14T22:19:16.570Z,8.00
2019-01-14T22:24:20.608Z,8.20
2019-01-14T22:29:25.551Z,8.10
2019-01-14T22:34:29.839Z,8.10
2019-01-14T22:39:33.867Z,8.00
2019-01-14T22:44:38.770Z,8.10
2019-01-14T22:49:42.746Z,8.00
2019-01-14T22:54:47.452Z,8.00
2019-01-14T22:59:52.023Z,8.10
2019-01-14T23:04:56.763Z,8.00
2019-01-14T23:10:00.939Z,8.10
2019-01-14T23:15:06.286Z,8.00
2019-01-14T23:20:11.594Z,8.00
2019-01-14T23:25:15.555Z,8.10
2019-01-14T23:30:19.530Z,8.00
2019-01-14T23:35:24.031Z,8.00
2019-01-14T23:40:28.331Z,8.10
2019-01-14T23:45:33.403Z,7.90
2019-01-14T23:50:37.435Z,8.00
2019-01-14T23:55:41.538Z,8.10
